sensor_id;sensor_type;location;lat;lon;timestamp;temperature;humidity
9486;DHT22;4781;48.776;9.200;2024-03-22T00:00:30;10.30;99.90
9486;DHT22;4781;48.776;9.200;2024-03-22T00:02:58;10.30;99.90
9486;DHT22;4781;48.776;9.200;2024-03-22T00:05:27;10.40;99.90
9486;DHT22;4781;48.776;9.200;2024-03-22T00:07:55;10.40;99.90
9486;DHT22;4781;48.776;9.200;2024-03-22T00:10:24;10.30;99.90
9486;DHT22;4781;48.776;9.200;2024-03-22T00:12:52;10.30;99.90
9486;DHT22;4781;48.776;9.200;2024-03-22T00:15:20;10.30;99.90
9486;DHT22;4781;48.776;9.200;2024-03-22T00:17:49;10.20;99.90
9486;DHT22;4781;48.776;9.200;2024-03-22T00:20:17;10.20;99.90
9486;DHT22;4781;48.776;9.200;2024-03-22T00:22:46;10.10;99.90
9486;DHT22;4781;48.776;9.200;2024-03-22T00:25:15;10.10;99.90
9486;DHT22;4781;48.776;9.200;2024-03-22T00:27:43;10.10;99.90
9486;DHT22;4781;48.776;9.200;2024-03-22T00:30:11;10.10;99.90
9486;DHT22;4781;48.776;9.200;2024-03-22T00:32:40;10.00;99.90
9486;DHT22;4781;48.776;9.200;2024-03-22T00:35:11;9.90;99.90
9486;DHT22;4781;48.776;9.200;2024-03-22T00:37:39;9.80;99.90
9486;DHT22;4781;48.776;9.200;2024-03-22T00:40:08;9.90;99.90
9486;DHT22;4781;48.776;9.200;2024-03-22T00:42:36;9.90;99.90
9486;DHT22;4781;48.776;9.200;2024-03-22T00:45:05;9.90;99.90
9486;DHT22;4781;48.776;9.200;2024-03-22T00:47:34;9.80;99.90
9486;DHT22;4781;48.776;9.200;2024-03-22T00:50:02;9.80;99.90
9486;DHT22;4781;48.776;9.200;2024-03-22T00:52:31;9.70;99.90
9486;DHT22;4781;48.776;9.200;2024-03-22T00:54:59;9.70;99.90
9486;DHT22;4781;48.776;9.200;2024-03-22T00:57:28;9.70;99.90
9486;DHT22;4781;48.776;9.200;2024-03-22T00:59:56;9.70;99.90
9486;DHT22;4781;48.776;9.200;2024-03-22T01:02:24;9.70;99.90
9486;DHT22;4781;48.776;9.200;2024-03-22T01:04:53;9.70;99.90
9486;DHT22;4781;48.776;9.200;2024-03-22T01:07:21;9.60;99.90
9486;DHT22;4781;48.776;9.200;2024-03-22T01:09:50;9.60;99.90
9486;DHT22;4781;48.776;9.200;2024-03-22T01:12:18;9.60;99.90
9486;DHT22;4781;48.776;9.200;2024-03-22T01:14:46;9.60;99.90
9486;DHT22;4781;48.776;9.200;2024-03-22T01:17:15;9.50;99.90
9486;DHT22;4781;48.776;9.200;2024-03-22T01:19:46;9.40;99.90
9486;DHT22;4781;48.776;9.200;2024-03-22T01:22:14;9.40;99.90
9486;DHT22;4781;48.776;9.200;2024-03-22T01:24:44;9.40;99.90
9486;DHT22;4781;48.776;9.200;2024-03-22T01:27:13;9.40;99.90
9486;DHT22;4781;48.776;9.200;2024-03-22T01:29:41;9.40;99.90
9486;DHT22;4781;48.776;9.200;2024-03-22T01:32:10;9.30;99.90
9486;DHT22;4781;48.776;9.200;2024-03-22T01:34:38;9.30;99.90
9486;DHT22;4781;48.776;9.200;2024-03-22T01:37:07;9.20;99.90
9486;DHT22;4781;48.776;9.200;2024-03-22T01:39:35;9.20;99.90
9486;DHT22;4781;48.776;9.200;2024-03-22T01:42:04;9.10;99.90
9486;DHT22;4781;48.776;9.200;2024-03-22T01:44:33;9.10;99.90
9486;DHT22;4781;48.776;9.200;2024-03-22T01:47:03;9.00;99.90
9486;DHT22;4781;48.776;9.200;2024-03-22T01:49:31;9.10;99.90
9486;DHT22;4781;48.776;9.200;2024-03-22T01:52:00;9.00;99.90
9486;DHT22;4781;48.776;9.200;2024-03-22T01:54:29;8.90;99.90
9486;DHT22;4781;48.776;9.200;2024-03-22T01:56:58;8.90;99.90
9486;DHT22;4781;48.776;9.200;2024-03-22T01:59:27;8.90;99.90
9486;DHT22;4781;48.776;9.200;2024-03-22T02:01:56;8.70;99.90
9486;DHT22;4781;48.776;9.200;2024-03-22T02:04:24;8.60;99.90
9486;DHT22;4781;48.776;9.200;2024-03-22T02:06:53;8.50;99.90
9486;DHT22;4781;48.776;9.200;2024-03-22T02:09:21;8.50;99.90
9486;DHT22;4781;48.776;9.200;2024-03-22T02:11:50;8.40;99.90
9486;DHT22;4781;48.776;9.200;2024-03-22T02:14:18;8.40;99.90
9486;DHT22;4781;48.776;9.200;2024-03-22T02:16:47;8.40;99.90
9486;DHT22;4781;48.776;9.200;2024-03-22T02:19:15;8.40;99.90
9486;DHT22;4781;48.776;9.200;2024-03-22T02:21:43;8.40;99.90
9486;DHT22;4781;48.776;9.200;2024-03-22T02:24:12;8.40;99.90
9486;DHT22;4781;48.776;9.200;2024-03-22T02:26:40;8.40;99.90
9486;DHT22;4781;48.776;9.200;2024-03-22T02:29:09;8.40;99.90
9486;DHT22;4781;48.776;9.200;2024-03-22T02:31:37;8.40;99.90
9486;DHT22;4781;48.776;9.200;2024-03-22T02:34:05;8.40;99.90
9486;DHT22;4781;48.776;9.200;2024-03-22T02:36:34;8.30;99.90
9486;DHT22;4781;48.776;9.200;2024-03-22T02:39:02;8.20;99.90
9486;DHT22;4781;48.776;9.200;2024-03-22T02:41:31;8.30;99.90
9486;DHT22;4781;48.776;9.200;2024-03-22T02:43:59;8.20;99.90
9486;DHT22;4781;48.776;9.200;2024-03-22T02:46:27;8.20;99.90
9486;DHT22;4781;48.776;9.200;2024-03-22T02:48:56;8.20;99.90
9486;DHT22;4781;48.776;9.200;2024-03-22T02:51:24;8.10;99.90
9486;DHT22;4781;48.776;9.200;2024-03-22T02:53:53;8.10;99.90
9486;DHT22;4781;48.776;9.200;2024-03-22T02:56:21;8.10;99.90
9486;DHT22;4781;48.776;9.200;2024-03-22T02:58:50;8.00;99.90
9486;DHT22;4781;48.776;9.200;2024-03-22T03:01:18;8.00;99.90
9486;DHT22;4781;48.776;9.200;2024-03-22T03:03:46;8.10;99.90
9486;DHT22;4781;48.776;9.200;2024-03-22T03:06:15;8.10;99.90
9486;DHT22;4781;48.776;9.200;2024-03-22T03:08:45;8.10;99.90
9486;DHT22;4781;48.776;9.200;2024-03-22T03:11:14;8.10;99.90
9486;DHT22;4781;48.776;9.200;2024-03-22T03:13:43;8.10;99.90
9486;DHT22;4781;48.776;9.200;2024-03-22T03:16:11;8.10;99.90
9486;DHT22;4781;48.776;9.200;2024-03-22T03:18:40;8.10;99.90
9486;DHT22;4781;48.776;9.200;2024-03-22T03:21:08;8.10;99.90
9486;DHT22;4781;48.776;9.200;2024-03-22T03:23:36;8.10;99.90
9486;DHT22;4781;48.776;9.200;2024-03-22T03:26:05;8.20;99.90
9486;DHT22;4781;48.776;9.200;2024-03-22T03:28:33;8.10;99.90
9486;DHT22;4781;48.776;9.200;2024-03-22T03:31:01;8.20;99.90
9486;DHT22;4781;48.776;9.200;2024-03-22T03:33:30;8.10;99.90
9486;DHT22;4781;48.776;9.200;2024-03-22T03:35:58;8.20;99.90
9486;DHT22;4781;48.776;9.200;2024-03-22T03:38:27;8.20;99.90
9486;DHT22;4781;48.776;9.200;2024-03-22T03:40:55;8.20;99.90
9486;DHT22;4781;48.776;9.200;2024-03-22T03:43:23;8.20;99.90
9486;DHT22;4781;48.776;9.200;2024-03-22T03:45:52;8.20;99.90
9486;DHT22;4781;48.776;9.200;2024-03-22T03:48:20;8.20;99.90
9486;DHT22;4781;48.776;9.200;2024-03-22T03:50:55;8.30;99.90
9486;DHT22;4781;48.776;9.200;2024-03-22T03:53:25;8.30;99.90
9486;DHT22;4781;48.776;9.200;2024-03-22T03:55:54;8.40;99.90
9486;DHT22;4781;48.776;9.200;2024-03-22T03:58:22;8.40;99.90
9486;DHT22;4781;48.776;9.200;2024-03-22T04:00:50;8.40;99.90
9486;DHT22;4781;48.776;9.200;2024-03-22T04:03:19;8.50;99.90
9486;DHT22;4781;48.776;9.200;2024-03-22T04:05:58;8.50;99.90
9486;DHT22;4781;48.776;9.200;2024-03-22T04:08:27;8.60;99.90
9486;DHT22;4781;48.776;9.200;2024-03-22T04:10:57;8.60;99.90
9486;DHT22;4781;48.776;9.200;2024-03-22T04:13:26;8.60;99.90
9486;DHT22;4781;48.776;9.200;2024-03-22T04:15:58;8.60;99.90
9486;DHT22;4781;48.776;9.200;2024-03-22T04:18:26;8.60;99.90
9486;DHT22;4781;48.776;9.200;2024-03-22T04:20:55;8.60;99.90
9486;DHT22;4781;48.776;9.200;2024-03-22T04:23:25;8.60;99.90
9486;DHT22;4781;48.776;9.200;2024-03-22T04:25:59;8.60;99.90
9486;DHT22;4781;48.776;9.200;2024-03-22T04:28:29;8.60;99.90
9486;DHT22;4781;48.776;9.200;2024-03-22T04:31:00;8.60;99.90
9486;DHT22;4781;48.776;9.200;2024-03-22T04:33:31;8.60;99.90
9486;DHT22;4781;48.776;9.200;2024-03-22T04:36:00;8.60;99.90
9486;DHT22;4781;48.776;9.200;2024-03-22T04:38:29;8.60;99.90
9486;DHT22;4781;48.776;9.200;2024-03-22T04:40:58;8.70;99.90
9486;DHT22;4781;48.776;9.200;2024-03-22T04:43:28;8.80;99.90
9486;DHT22;4781;48.776;9.200;2024-03-22T04:45:56;8.80;99.90
9486;DHT22;4781;48.776;9.200;2024-03-22T04:48:25;8.90;99.90
9486;DHT22;4781;48.776;9.200;2024-03-22T04:50:53;8.90;99.90
9486;DHT22;4781;48.776;9.200;2024-03-22T04:53:22;9.00;99.90
9486;DHT22;4781;48.776;9.200;2024-03-22T04:55:51;8.90;99.90
9486;DHT22;4781;48.776;9.200;2024-03-22T04:58:21;9.00;99.90
9486;DHT22;4781;48.776;9.200;2024-03-22T05:00:55;9.00;99.90
9486;DHT22;4781;48.776;9.200;2024-03-22T05:03:21;9.00;99.90
9486;DHT22;4781;48.776;9.200;2024-03-22T05:05:50;9.00;99.90
9486;DHT22;4781;48.776;9.200;2024-03-22T05:08:18;9.10;99.90
9486;DHT22;4781;48.776;9.200;2024-03-22T05:10:47;9.10;99.90
9486;DHT22;4781;48.776;9.200;2024-03-22T05:13:15;9.20;99.90
9486;DHT22;4781;48.776;9.200;2024-03-22T05:15:43;9.20;99.90
9486;DHT22;4781;48.776;9.200;2024-03-22T05:18:12;9.20;99.90
9486;DHT22;4781;48.776;9.200;2024-03-22T05:20:40;9.30;99.90
9486;DHT22;4781;48.776;9.200;2024-03-22T05:23:08;9.30;99.90
9486;DHT22;4781;48.776;9.200;2024-03-22T05:25:37;9.30;99.90
9486;DHT22;4781;48.776;9.200;2024-03-22T05:28:05;9.40;99.90
9486;DHT22;4781;48.776;9.200;2024-03-22T05:30:34;9.40;99.90
9486;DHT22;4781;48.776;9.200;2024-03-22T05:33:02;9.50;99.90
9486;DHT22;4781;48.776;9.200;2024-03-22T05:35:31;9.50;99.90
9486;DHT22;4781;48.776;9.200;2024-03-22T05:37:59;9.50;99.90
9486;DHT22;4781;48.776;9.200;2024-03-22T05:40:27;9.50;99.90
9486;DHT22;4781;48.776;9.200;2024-03-22T05:42:56;9.50;99.90
9486;DHT22;4781;48.776;9.200;2024-03-22T05:45:24;9.60;99.90
9486;DHT22;4781;48.776;9.200;2024-03-22T05:47:52;9.50;99.90
9486;DHT22;4781;48.776;9.200;2024-03-22T05:50:21;9.60;99.90
9486;DHT22;4781;48.776;9.200;2024-03-22T05:52:49;9.60;99.90
9486;DHT22;4781;48.776;9.200;2024-03-22T05:55:18;9.60;99.90
9486;DHT22;4781;48.776;9.200;2024-03-22T05:57:46;9.60;99.90
9486;DHT22;4781;48.776;9.200;2024-03-22T06:00:15;9.70;99.90
9486;DHT22;4781;48.776;9.200;2024-03-22T06:02:44;9.70;99.90
9486;DHT22;4781;48.776;9.200;2024-03-22T06:05:12;9.60;99.90
9486;DHT22;4781;48.776;9.200;2024-03-22T06:07:41;9.70;99.90
9486;DHT22;4781;48.776;9.200;2024-03-22T06:10:10;9.70;99.90
9486;DHT22;4781;48.776;9.200;2024-03-22T06:12:38;9.70;99.90
9486;DHT22;4781;48.776;9.200;2024-03-22T06:15:07;9.70;99.90
9486;DHT22;4781;48.776;9.200;2024-03-22T06:17:36;9.70;99.90
9486;DHT22;4781;48.776;9.200;2024-03-22T06:20:07;9.70;99.90
9486;DHT22;4781;48.776;9.200;2024-03-22T06:22:54;9.70;99.90
9486;DHT22;4781;48.776;9.200;2024-03-22T06:25:23;9.70;99.90
9486;DHT22;4781;48.776;9.200;2024-03-22T06:27:51;9.70;99.90
9486;DHT22;4781;48.776;9.200;2024-03-22T06:30:19;9.80;99.90
9486;DHT22;4781;48.776;9.200;2024-03-22T06:32:48;9.70;99.90
9486;DHT22;4781;48.776;9.200;2024-03-22T06:35:16;9.80;99.90
9486;DHT22;4781;48.776;9.200;2024-03-22T06:37:44;9.80;99.90
9486;DHT22;4781;48.776;9.200;2024-03-22T06:40:13;9.70;99.90
9486;DHT22;4781;48.776;9.200;2024-03-22T06:42:41;9.80;99.90
9486;DHT22;4781;48.776;9.200;2024-03-22T06:45:10;9.80;99.90
9486;DHT22;4781;48.776;9.200;2024-03-22T06:47:38;9.80;99.90
9486;DHT22;4781;48.776;9.200;2024-03-22T06:50:07;9.90;99.90
9486;DHT22;4781;48.776;9.200;2024-03-22T06:52:36;9.90;99.90
9486;DHT22;4781;48.776;9.200;2024-03-22T06:55:05;10.00;99.90
9486;DHT22;4781;48.776;9.200;2024-03-22T06:57:33;10.10;99.90
9486;DHT22;4781;48.776;9.200;2024-03-22T07:00:02;10.10;99.90
9486;DHT22;4781;48.776;9.200;2024-03-22T07:02:30;10.20;99.90
9486;DHT22;4781;48.776;9.200;2024-03-22T07:04:59;10.30;99.90
9486;DHT22;4781;48.776;9.200;2024-03-22T07:07:27;10.40;99.90
9486;DHT22;4781;48.776;9.200;2024-03-22T07:09:56;10.50;99.90
9486;DHT22;4781;48.776;9.200;2024-03-22T07:12:25;10.50;99.90
9486;DHT22;4781;48.776;9.200;2024-03-22T07:14:54;10.60;99.90
9486;DHT22;4781;48.776;9.200;2024-03-22T07:17:24;10.70;99.90
9486;DHT22;4781;48.776;9.200;2024-03-22T07:19:52;10.70;99.90
9486;DHT22;4781;48.776;9.200;2024-03-22T07:22:21;10.90;99.90
9486;DHT22;4781;48.776;9.200;2024-03-22T07:24:50;11.00;99.90
9486;DHT22;4781;48.776;9.200;2024-03-22T07:27:19;11.00;99.90
9486;DHT22;4781;48.776;9.200;2024-03-22T07:29:47;11.10;99.90
9486;DHT22;4781;48.776;9.200;2024-03-22T07:32:15;11.30;99.90
9486;DHT22;4781;48.776;9.200;2024-03-22T07:34:46;11.40;99.90
9486;DHT22;4781;48.776;9.200;2024-03-22T07:37:14;11.40;99.90
9486;DHT22;4781;48.776;9.200;2024-03-22T07:39:42;11.50;99.90
9486;DHT22;4781;48.776;9.200;2024-03-22T07:42:11;11.70;99.90
9486;DHT22;4781;48.776;9.200;2024-03-22T07:44:39;11.80;99.90
9486;DHT22;4781;48.776;9.200;2024-03-22T07:47:08;11.90;99.90
9486;DHT22;4781;48.776;9.200;2024-03-22T07:49:36;12.00;99.90
9486;DHT22;4781;48.776;9.200;2024-03-22T07:52:05;12.20;99.90
9486;DHT22;4781;48.776;9.200;2024-03-22T07:54:33;12.40;99.90
9486;DHT22;4781;48.776;9.200;2024-03-22T07:57:02;12.60;99.90
9486;DHT22;4781;48.776;9.200;2024-03-22T07:59:30;12.70;99.90
9486;DHT22;4781;48.776;9.200;2024-03-22T08:01:59;12.80;99.90
9486;DHT22;4781;48.776;9.200;2024-03-22T08:04:27;12.90;99.90
9486;DHT22;4781;48.776;9.200;2024-03-22T08:06:56;13.10;99.90
9486;DHT22;4781;48.776;9.200;2024-03-22T08:09:24;13.10;99.90
9486;DHT22;4781;48.776;9.200;2024-03-22T08:11:53;13.30;99.90
9486;DHT22;4781;48.776;9.200;2024-03-22T08:14:21;13.30;99.90
9486;DHT22;4781;48.776;9.200;2024-03-22T08:16:50;13.40;99.90
9486;DHT22;4781;48.776;9.200;2024-03-22T08:19:18;13.60;99.90
9486;DHT22;4781;48.776;9.200;2024-03-22T08:21:46;13.80;99.90
9486;DHT22;4781;48.776;9.200;2024-03-22T08:24:15;13.90;99.90
9486;DHT22;4781;48.776;9.200;2024-03-22T08:26:44;14.00;99.90
9486;DHT22;4781;48.776;9.200;2024-03-22T08:29:13;14.20;99.90
9486;DHT22;4781;48.776;9.200;2024-03-22T08:31:42;14.40;99.90
9486;DHT22;4781;48.776;9.200;2024-03-22T08:34:10;14.50;99.90
9486;DHT22;4781;48.776;9.200;2024-03-22T08:36:39;14.70;99.90
9486;DHT22;4781;48.776;9.200;2024-03-22T08:39:07;14.80;99.90
9486;DHT22;4781;48.776;9.200;2024-03-22T08:41:37;15.10;99.90
9486;DHT22;4781;48.776;9.200;2024-03-22T08:44:06;15.20;99.90
9486;DHT22;4781;48.776;9.200;2024-03-22T08:46:34;15.40;98.80
9486;DHT22;4781;48.776;9.200;2024-03-22T08:49:03;15.70;99.70
9486;DHT22;4781;48.776;9.200;2024-03-22T08:51:31;15.80;99.90
9486;DHT22;4781;48.776;9.200;2024-03-22T08:54:00;15.90;99.20
9486;DHT22;4781;48.776;9.200;2024-03-22T08:56:28;15.90;97.10
9486;DHT22;4781;48.776;9.200;2024-03-22T08:58:57;16.00;97.70
9486;DHT22;4781;48.776;9.200;2024-03-22T09:01:26;16.10;95.70
9486;DHT22;4781;48.776;9.200;2024-03-22T09:03:54;16.20;97.40
9486;DHT22;4781;48.776;9.200;2024-03-22T09:06:22;16.20;96.90
9486;DHT22;4781;48.776;9.200;2024-03-22T09:08:51;16.20;97.90
9486;DHT22;4781;48.776;9.200;2024-03-22T09:11:21;16.30;98.40
9486;DHT22;4781;48.776;9.200;2024-03-22T09:13:51;16.30;98.70
9486;DHT22;4781;48.776;9.200;2024-03-22T09:16:21;16.40;98.60
9486;DHT22;4781;48.776;9.200;2024-03-22T09:18:50;16.50;97.40
9486;DHT22;4781;48.776;9.200;2024-03-22T09:21:18;16.50;97.30
9486;DHT22;4781;48.776;9.200;2024-03-22T09:23:47;16.50;97.70
9486;DHT22;4781;48.776;9.200;2024-03-22T09:26:15;16.60;98.50
9486;DHT22;4781;48.776;9.200;2024-03-22T09:28:48;16.50;97.00
9486;DHT22;4781;48.776;9.200;2024-03-22T09:31:18;16.70;97.60
9486;DHT22;4781;48.776;9.200;2024-03-22T09:33:46;16.90;98.20
9486;DHT22;4781;48.776;9.200;2024-03-22T09:36:15;17.10;96.90
9486;DHT22;4781;48.776;9.200;2024-03-22T09:38:43;17.20;96.90
9486;DHT22;4781;48.776;9.200;2024-03-22T09:41:14;17.40;97.70
9486;DHT22;4781;48.776;9.200;2024-03-22T09:43:44;17.60;96.50
9486;DHT22;4781;48.776;9.200;2024-03-22T09:46:14;17.70;95.20
9486;DHT22;4781;48.776;9.200;2024-03-22T09:48:42;17.90;96.60
9486;DHT22;4781;48.776;9.200;2024-03-22T09:51:12;18.20;96.60
9486;DHT22;4781;48.776;9.200;2024-03-22T09:53:45;18.00;93.10
9486;DHT22;4781;48.776;9.200;2024-03-22T09:56:18;18.40;95.20
9486;DHT22;4781;48.776;9.200;2024-03-22T09:58:48;18.60;93.90
9486;DHT22;4781;48.776;9.200;2024-03-22T10:01:17;18.60;92.40
9486;DHT22;4781;48.776;9.200;2024-03-22T10:03:46;18.80;91.70
9486;DHT22;4781;48.776;9.200;2024-03-22T10:06:15;19.00;91.40
9486;DHT22;4781;48.776;9.200;2024-03-22T10:08:44;19.00;90.70
9486;DHT22;4781;48.776;9.200;2024-03-22T10:11:12;18.80;87.80
9486;DHT22;4781;48.776;9.200;2024-03-22T10:13:41;19.00;91.00
9486;DHT22;4781;48.776;9.200;2024-03-22T10:16:10;19.30;91.10
9486;DHT22;4781;48.776;9.200;2024-03-22T10:18:39;19.30;90.60
9486;DHT22;4781;48.776;9.200;2024-03-22T10:21:08;19.40;86.60
9486;DHT22;4781;48.776;9.200;2024-03-22T10:23:37;19.50;87.00
9486;DHT22;4781;48.776;9.200;2024-03-22T10:26:05;19.50;85.30
9486;DHT22;4781;48.776;9.200;2024-03-22T10:28:34;19.50;84.00
9486;DHT22;4781;48.776;9.200;2024-03-22T10:31:03;19.00;77.70
9486;DHT22;4781;48.776;9.200;2024-03-22T10:33:32;19.10;83.90
9486;DHT22;4781;48.776;9.200;2024-03-22T10:36:02;19.20;80.30
9486;DHT22;4781;48.776;9.200;2024-03-22T10:38:31;19.20;80.30
9486;DHT22;4781;48.776;9.200;2024-03-22T10:41:00;19.00;81.30
9486;DHT22;4781;48.776;9.200;2024-03-22T10:43:29;19.10;79.10
9486;DHT22;4781;48.776;9.200;2024-03-22T10:46:05;19.20;83.70
9486;DHT22;4781;48.776;9.200;2024-03-22T10:48:31;19.20;81.40
9486;DHT22;4781;48.776;9.200;2024-03-22T10:51:01;19.20;80.10
9486;DHT22;4781;48.776;9.200;2024-03-22T10:53:31;19.10;79.30
9486;DHT22;4781;48.776;9.200;2024-03-22T10:56:01;19.20;80.50
9486;DHT22;4781;48.776;9.200;2024-03-22T10:58:30;19.20;79.70
9486;DHT22;4781;48.776;9.200;2024-03-22T11:00:59;19.30;79.50
9486;DHT22;4781;48.776;9.200;2024-03-22T11:03:27;19.40;82.70
9486;DHT22;4781;48.776;9.200;2024-03-22T11:05:57;19.60;83.20
9486;DHT22;4781;48.776;9.200;2024-03-22T11:08:27;19.70;83.70
9486;DHT22;4781;48.776;9.200;2024-03-22T11:10:57;19.80;83.20
9486;DHT22;4781;48.776;9.200;2024-03-22T11:13:26;19.80;79.50
9486;DHT22;4781;48.776;9.200;2024-03-22T11:15:54;19.60;76.80
9486;DHT22;4781;48.776;9.200;2024-03-22T11:18:23;19.30;77.20
9486;DHT22;4781;48.776;9.200;2024-03-22T11:20:51;19.60;79.10
9486;DHT22;4781;48.776;9.200;2024-03-22T11:23:20;19.80;80.90
9486;DHT22;4781;48.776;9.200;2024-03-22T11:25:48;20.00;81.40
9486;DHT22;4781;48.776;9.200;2024-03-22T11:28:17;20.10;79.60
9486;DHT22;4781;48.776;9.200;2024-03-22T11:30:46;20.10;79.80
9486;DHT22;4781;48.776;9.200;2024-03-22T11:33:15;19.90;79.00
9486;DHT22;4781;48.776;9.200;2024-03-22T11:35:44;20.10;79.60
9486;DHT22;4781;48.776;9.200;2024-03-22T11:38:12;20.20;80.90
9486;DHT22;4781;48.776;9.200;2024-03-22T11:40:41;20.20;82.60
9486;DHT22;4781;48.776;9.200;2024-03-22T11:43:10;20.30;79.80
9486;DHT22;4781;48.776;9.200;2024-03-22T11:45:42;20.50;82.70
9486;DHT22;4781;48.776;9.200;2024-03-22T11:48:10;20.70;82.30
9486;DHT22;4781;48.776;9.200;2024-03-22T11:50:39;20.50;80.00
9486;DHT22;4781;48.776;9.200;2024-03-22T11:53:07;20.40;81.80
9486;DHT22;4781;48.776;9.200;2024-03-22T11:55:36;20.60;80.50
9486;DHT22;4781;48.776;9.200;2024-03-22T11:58:04;20.80;83.00
9486;DHT22;4781;48.776;9.200;2024-03-22T12:00:33;21.00;83.60
9486;DHT22;4781;48.776;9.200;2024-03-22T12:03:06;20.80;80.00
9486;DHT22;4781;48.776;9.200;2024-03-22T12:05:35;20.70;81.20
9486;DHT22;4781;48.776;9.200;2024-03-22T12:08:04;20.90;80.50
9486;DHT22;4781;48.776;9.200;2024-03-22T12:10:33;20.90;80.40
9486;DHT22;4781;48.776;9.200;2024-03-22T12:13:01;20.70;76.70
9486;DHT22;4781;48.776;9.200;2024-03-22T12:15:30;20.80;76.80
9486;DHT22;4781;48.776;9.200;2024-03-22T12:17:58;20.80;78.20
9486;DHT22;4781;48.776;9.200;2024-03-22T12:20:27;21.00;77.80
9486;DHT22;4781;48.776;9.200;2024-03-22T12:22:56;20.90;77.80
9486;DHT22;4781;48.776;9.200;2024-03-22T12:25:24;20.80;77.70
9486;DHT22;4781;48.776;9.200;2024-03-22T12:27:53;20.90;78.50
9486;DHT22;4781;48.776;9.200;2024-03-22T12:30:22;20.90;76.20
9486;DHT22;4781;48.776;9.200;2024-03-22T12:32:52;20.80;77.30
9486;DHT22;4781;48.776;9.200;2024-03-22T12:35:20;20.80;76.20
9486;DHT22;4781;48.776;9.200;2024-03-22T12:37:49;20.70;76.10
9486;DHT22;4781;48.776;9.200;2024-03-22T12:40:17;20.50;73.10
9486;DHT22;4781;48.776;9.200;2024-03-22T12:42:45;20.60;76.20
9486;DHT22;4781;48.776;9.200;2024-03-22T12:45:14;20.50;74.40
9486;DHT22;4781;48.776;9.200;2024-03-22T12:47:42;20.50;73.40
9486;DHT22;4781;48.776;9.200;2024-03-22T12:50:11;20.50;75.30
9486;DHT22;4781;48.776;9.200;2024-03-22T12:52:40;20.40;75.60
9486;DHT22;4781;48.776;9.200;2024-03-22T12:55:10;20.40;77.20
9486;DHT22;4781;48.776;9.200;2024-03-22T12:57:38;20.60;75.40
9486;DHT22;4781;48.776;9.200;2024-03-22T13:00:07;20.40;73.30
9486;DHT22;4781;48.776;9.200;2024-03-22T13:02:43;20.50;70.20
9486;DHT22;4781;48.776;9.200;2024-03-22T13:05:08;20.50;70.30
9486;DHT22;4781;48.776;9.200;2024-03-22T13:07:37;20.10;67.10
9486;DHT22;4781;48.776;9.200;2024-03-22T13:10:06;20.00;66.80
9486;DHT22;4781;48.776;9.200;2024-03-22T13:12:34;20.00;68.50
9486;DHT22;4781;48.776;9.200;2024-03-22T13:15:03;20.20;71.50
9486;DHT22;4781;48.776;9.200;2024-03-22T13:17:31;20.20;72.00
9486;DHT22;4781;48.776;9.200;2024-03-22T13:20:00;20.20;70.70
9486;DHT22;4781;48.776;9.200;2024-03-22T13:22:29;20.40;71.20
9486;DHT22;4781;48.776;9.200;2024-03-22T13:24:57;20.50;69.70
9486;DHT22;4781;48.776;9.200;2024-03-22T13:27:25;20.60;72.20
9486;DHT22;4781;48.776;9.200;2024-03-22T13:29:54;20.60;72.10
9486;DHT22;4781;48.776;9.200;2024-03-22T13:32:22;20.70;73.10
9486;DHT22;4781;48.776;9.200;2024-03-22T13:34:51;20.60;71.70
9486;DHT22;4781;48.776;9.200;2024-03-22T13:37:19;20.30;69.80
9486;DHT22;4781;48.776;9.200;2024-03-22T13:39:50;20.30;69.70
9486;DHT22;4781;48.776;9.200;2024-03-22T13:42:19;20.50;73.80
9486;DHT22;4781;48.776;9.200;2024-03-22T13:44:47;20.60;71.50
9486;DHT22;4781;48.776;9.200;2024-03-22T13:47:15;20.60;73.40
9486;DHT22;4781;48.776;9.200;2024-03-22T13:49:44;20.70;73.00
9486;DHT22;4781;48.776;9.200;2024-03-22T13:52:13;20.70;75.20
9486;DHT22;4781;48.776;9.200;2024-03-22T13:54:41;20.70;74.20
9486;DHT22;4781;48.776;9.200;2024-03-22T13:57:09;20.80;75.40
9486;DHT22;4781;48.776;9.200;2024-03-22T13:59:38;20.90;75.10
9486;DHT22;4781;48.776;9.200;2024-03-22T14:02:07;20.90;73.80
9486;DHT22;4781;48.776;9.200;2024-03-22T14:04:35;21.00;75.80
9486;DHT22;4781;48.776;9.200;2024-03-22T14:07:04;21.00;74.30
9486;DHT22;4781;48.776;9.200;2024-03-22T14:09:34;20.90;75.80
9486;DHT22;4781;48.776;9.200;2024-03-22T14:12:03;20.90;75.00
9486;DHT22;4781;48.776;9.200;2024-03-22T14:14:33;20.90;74.40
9486;DHT22;4781;48.776;9.200;2024-03-22T14:17:01;20.80;75.90
9486;DHT22;4781;48.776;9.200;2024-03-22T14:19:30;20.80;76.70
9486;DHT22;4781;48.776;9.200;2024-03-22T14:21:58;20.70;76.40
9486;DHT22;4781;48.776;9.200;2024-03-22T14:24:27;20.70;76.90
9486;DHT22;4781;48.776;9.200;2024-03-22T14:26:55;20.50;76.10
9486;DHT22;4781;48.776;9.200;2024-03-22T14:29:23;20.30;76.10
9486;DHT22;4781;48.776;9.200;2024-03-22T14:31:52;20.40;76.90
9486;DHT22;4781;48.776;9.200;2024-03-22T14:34:22;20.30;76.60
9486;DHT22;4781;48.776;9.200;2024-03-22T14:36:50;20.00;75.70
9486;DHT22;4781;48.776;9.200;2024-03-22T14:39:18;19.90;76.20
9486;DHT22;4781;48.776;9.200;2024-03-22T14:41:47;19.80;75.50
9486;DHT22;4781;48.776;9.200;2024-03-22T14:44:15;19.80;76.30
9486;DHT22;4781;48.776;9.200;2024-03-22T14:46:43;19.60;74.30
9486;DHT22;4781;48.776;9.200;2024-03-22T14:49:12;19.60;73.70
9486;DHT22;4781;48.776;9.200;2024-03-22T14:51:41;19.40;74.10
9486;DHT22;4781;48.776;9.200;2024-03-22T14:54:10;19.40;73.70
9486;DHT22;4781;48.776;9.200;2024-03-22T14:56:38;19.40;73.00
9486;DHT22;4781;48.776;9.200;2024-03-22T14:59:07;19.40;72.50
9486;DHT22;4781;48.776;9.200;2024-03-22T15:01:35;19.40;72.50
9486;DHT22;4781;48.776;9.200;2024-03-22T15:04:05;19.30;72.40
9486;DHT22;4781;48.776;9.200;2024-03-22T15:06:34;19.30;72.10
9486;DHT22;4781;48.776;9.200;2024-03-22T15:09:02;19.40;71.90
9486;DHT22;4781;48.776;9.200;2024-03-22T15:11:33;19.40;72.50
9486;DHT22;4781;48.776;9.200;2024-03-22T15:14:02;19.30;72.00
9486;DHT22;4781;48.776;9.200;2024-03-22T15:16:30;19.30;71.80
9486;DHT22;4781;48.776;9.200;2024-03-22T15:18:59;19.20;71.70
9486;DHT22;4781;48.776;9.200;2024-03-22T15:21:27;19.10;70.00
9486;DHT22;4781;48.776;9.200;2024-03-22T15:23:55;19.10;70.30
9486;DHT22;4781;48.776;9.200;2024-03-22T15:26:24;19.00;70.80
9486;DHT22;4781;48.776;9.200;2024-03-22T15:28:52;18.90;70.30
9486;DHT22;4781;48.776;9.200;2024-03-22T15:31:20;18.90;70.00
9486;DHT22;4781;48.776;9.200;2024-03-22T15:33:49;18.80;70.00
9486;DHT22;4781;48.776;9.200;2024-03-22T15:36:18;18.90;71.30
9486;DHT22;4781;48.776;9.200;2024-03-22T15:38:46;18.80;71.10
9486;DHT22;4781;48.776;9.200;2024-03-22T15:41:15;18.80;72.00
9486;DHT22;4781;48.776;9.200;2024-03-22T15:43:45;18.70;71.40
9486;DHT22;4781;48.776;9.200;2024-03-22T15:46:13;18.70;71.30
9486;DHT22;4781;48.776;9.200;2024-03-22T15:48:42;18.60;72.40
9486;DHT22;4781;48.776;9.200;2024-03-22T15:51:11;18.60;72.00
9486;DHT22;4781;48.776;9.200;2024-03-22T15:53:40;18.60;72.40
9486;DHT22;4781;48.776;9.200;2024-03-22T15:56:08;18.60;73.20
9486;DHT22;4781;48.776;9.200;2024-03-22T15:58:37;18.60;73.10
9486;DHT22;4781;48.776;9.200;2024-03-22T16:01:05;18.50;72.80
9486;DHT22;4781;48.776;9.200;2024-03-22T16:03:33;18.50;73.70
9486;DHT22;4781;48.776;9.200;2024-03-22T16:06:02;18.40;72.30
9486;DHT22;4781;48.776;9.200;2024-03-22T16:08:31;18.30;72.90
9486;DHT22;4781;48.776;9.200;2024-03-22T16:11:00;18.30;73.90
9486;DHT22;4781;48.776;9.200;2024-03-22T16:13:28;18.30;73.60
9486;DHT22;4781;48.776;9.200;2024-03-22T16:15:56;18.30;74.50